Skip Navigation Links Skip Navigation Links

Current Weather

Santacruz Apt, Mumbai (Bombay), India

For information only: do not use for flight planning or navigation.
Latest weather
Observation time Sunday, October 22, 2017 1:00 AM IST
Local time Sunday, October 22, 2017 1:07 AM IST
Flight conditions Instrument Meteorological Conditions
Winds
Wind direction South-Southwest (200°)
Wind speed 5 mph
Visibility 1.9 mi.
Present weather haze
Sky condition
Ceiling 10,000 ft. broken clouds
Cloud layer few clouds 2,000 ft.
Cloud layer broken clouds 10,000 ft.
Temperature 82°F
Dewpoint 79°F
Altimeter 29.80 in.Hg
Derived measurements
Relative humidity 89%
Heat index 92°F
Density altitude 2133 ft.
Remarks
No significant changes expected in the next two hours.
METAR VABB 211930Z 20004KT 3000 HZ FEW020 BKN100 28/26 Q1009 NOSIG

Settings

Location code

InnerDrive.Weather 4.0.6144.1 Release CLR 4.0.30319.36366
Copyright ©2015 Inner Drive Technology. All rights reserved. Portions Copyright ©1986-2015 David Braverman.

Find weather

Site navigation


Skip Navigation Links

Place info

Page info

PayPal - The safer, easier way to pay online!

Return home.

Copyright ©2017 Inner Drive Technology. Purveyors of fine, hand-crafted computer software. Page printed 2017-10-21T19:37:30 UTC.